createdAt,value
2022-12-19T00:00:29.762Z,1014.80
2022-12-19T00:01:29.840Z,1014.71
2022-12-19T00:02:29.892Z,1014.69
2022-12-19T00:03:29.884Z,1014.72
2022-12-19T00:04:29.713Z,1014.71
2022-12-19T00:05:29.700Z,1014.63
2022-12-19T00:06:29.682Z,1014.65
2022-12-19T00:07:29.670Z,1014.65
2022-12-19T00:08:29.743Z,1014.62
2022-12-19T00:09:29.649Z,1014.58
2022-12-19T00:10:29.632Z,1014.57
2022-12-19T00:11:29.635Z,1014.58
2022-12-19T00:12:29.610Z,1014.52
2022-12-19T00:13:29.593Z,1014.56
2022-12-19T00:14:29.607Z,1014.60
2022-12-19T00:15:29.582Z,1014.64
2022-12-19T00:16:29.749Z,1014.65
2022-12-19T00:17:29.560Z,1014.69
2022-12-19T00:18:29.535Z,1014.68
2022-12-19T00:19:29.518Z,1014.67
2022-12-19T00:20:29.512Z,1014.71
2022-12-19T00:21:29.498Z,1014.66
2022-12-19T00:22:29.490Z,1014.60
2022-12-19T00:23:29.464Z,1014.63
2022-12-19T00:24:29.528Z,1014.66
2022-12-19T00:25:29.452Z,1014.71
2022-12-19T00:26:29.436Z,1014.78
2022-12-19T00:27:29.439Z,1014.76
2022-12-19T00:28:29.405Z,1014.71
2022-12-19T00:29:29.392Z,1014.66
2022-12-19T00:30:29.379Z,1014.77
2022-12-19T00:31:29.399Z,1014.70
2022-12-19T00:32:29.351Z,1014.70
2022-12-19T00:33:29.341Z,1014.72
2022-12-19T00:34:29.330Z,1014.69
2022-12-19T00:35:29.317Z,1014.67
2022-12-19T00:36:29.300Z,1014.68
2022-12-19T00:37:29.286Z,1014.62
2022-12-19T00:38:29.276Z,1014.54
2022-12-19T00:39:29.261Z,1014.55
2022-12-19T00:40:29.327Z,1014.42
2022-12-19T00:41:29.241Z,1014.38
2022-12-19T00:42:29.227Z,1014.40
2022-12-19T00:43:29.208Z,1014.31
2022-12-19T00:44:29.198Z,1014.32
2022-12-19T00:45:29.263Z,1014.21
2022-12-19T00:46:29.181Z,1014.21
2022-12-19T00:47:29.150Z,1014.13
2022-12-19T00:48:29.145Z,1014.18
2022-12-19T00:49:29.140Z,1014.19
2022-12-19T00:50:29.120Z,1014.21
2022-12-19T00:51:29.104Z,1014.18
2022-12-19T00:52:29.512Z,1014.15
2022-12-19T00:53:29.087Z,1014.16
2022-12-19T00:54:29.114Z,1014.09
2022-12-19T00:55:29.054Z,1014.08
2022-12-19T00:56:29.136Z,1014.07
2022-12-19T00:57:29.025Z,1013.99
2022-12-19T00:58:29.015Z,1014.00
2022-12-19T00:59:28.997Z,1013.96
2022-12-19T01:00:28.985Z,1013.94
2022-12-19T01:01:29.128Z,1013.99
2022-12-19T01:02:29.019Z,1013.97
2022-12-19T01:03:28.940Z,1014.01
2022-12-19T01:04:29.991Z,1013.86
2022-12-19T01:05:28.914Z,1013.91
2022-12-19T01:06:28.905Z,1013.91
2022-12-19T01:07:28.893Z,1013.86
2022-12-19T01:08:28.869Z,1013.83
2022-12-19T01:09:28.864Z,1013.86
2022-12-19T01:10:28.849Z,1013.82
2022-12-19T01:11:28.834Z,1013.99
2022-12-19T01:12:28.903Z,1014.14
2022-12-19T01:13:28.801Z,1013.98
2022-12-19T01:14:28.796Z,1014.01
2022-12-19T01:15:28.778Z,1013.97
2022-12-19T01:16:28.825Z,1013.99
2022-12-19T01:17:28.761Z,1014.04
2022-12-19T01:18:28.744Z,1014.00
2022-12-19T01:19:28.732Z,1013.94
2022-12-19T01:20:29.494Z,1014.00
2022-12-19T01:21:28.702Z,1013.98
2022-12-19T01:22:28.695Z,1014.01
2022-12-19T01:23:28.675Z,1014.00
2022-12-19T01:24:28.663Z,1014.02
2022-12-19T01:25:28.677Z,1013.98
2022-12-19T01:26:28.636Z,1013.90
2022-12-19T01:27:28.628Z,1013.94
2022-12-19T01:28:34.558Z,1013.92
2022-12-19T01:29:28.677Z,1013.95
2022-12-19T01:30:29.209Z,1013.90
2022-12-19T01:31:28.614Z,1013.94
2022-12-19T01:32:28.562Z,1013.88
2022-12-19T01:33:28.545Z,1013.87
2022-12-19T01:34:28.535Z,1013.91
2022-12-19T01:35:28.520Z,1013.91
2022-12-19T01:36:28.525Z,1013.93
2022-12-19T01:37:28.501Z,1013.87
2022-12-19T01:38:28.485Z,1013.85
2022-12-19T01:39:28.462Z,1013.89
2022-12-19T01:40:28.460Z,1013.91
2022-12-19T01:41:28.442Z,1013.96
2022-12-19T01:42:28.431Z,1014.00
2022-12-19T01:43:28.417Z,1013.90
2022-12-19T01:44:28.404Z,1013.98
2022-12-19T01:45:34.025Z,1013.92
2022-12-19T01:46:28.469Z,1013.88
2022-12-19T01:47:28.366Z,1013.90
2022-12-19T01:48:28.352Z,1013.86
2022-12-19T01:49:28.334Z,1013.76
2022-12-19T01:50:28.328Z,1013.75
2022-12-19T01:51:28.312Z,1013.77
2022-12-19T01:52:28.301Z,1013.82
2022-12-19T01:53:28.290Z,1013.68
2022-12-19T01:54:28.272Z,1013.75
2022-12-19T01:55:28.262Z,1013.81
2022-12-19T01:56:28.229Z,1013.97
2022-12-19T01:57:28.204Z,1013.85
2022-12-19T01:58:28.193Z,1013.83
2022-12-19T01:59:28.197Z,1013.75
2022-12-19T02:00:28.176Z,1013.91
2022-12-19T02:01:28.418Z,1013.74
2022-12-19T02:02:28.240Z,1013.76
2022-12-19T02:03:28.127Z,1013.81
2022-12-19T02:04:30.247Z,1013.87
2022-12-19T02:05:28.100Z,1013.75
2022-12-19T02:06:28.092Z,1013.83
2022-12-19T02:07:28.074Z,1013.83
2022-12-19T02:08:28.068Z,1013.69
2022-12-19T02:09:28.051Z,1013.75
2022-12-19T02:10:28.038Z,1013.68
2022-12-19T02:11:28.024Z,1013.69
2022-12-19T02:12:28.016Z,1013.61
2022-12-19T02:13:28.001Z,1013.57
2022-12-19T02:14:27.988Z,1013.63
2022-12-19T02:15:27.973Z,1013.63
2022-12-19T02:16:30.277Z,1013.65
2022-12-19T02:17:28.033Z,1013.65
2022-12-19T02:18:27.942Z,1013.65
2022-12-19T02:19:27.923Z,1013.61
2022-12-19T02:20:27.918Z,1013.68
2022-12-19T02:21:27.909Z,1013.69
2022-12-19T02:22:27.889Z,1013.64
2022-12-19T02:23:27.887Z,1013.63
2022-12-19T02:24:27.866Z,1013.66
2022-12-19T02:25:27.846Z,1013.50
2022-12-19T02:26:27.837Z,1013.55
2022-12-19T02:27:27.840Z,1013.57
2022-12-19T02:28:27.808Z,1013.54
2022-12-19T02:29:27.802Z,1013.55
2022-12-19T02:30:27.793Z,1013.55
2022-12-19T02:31:27.860Z,1013.56
2022-12-19T02:32:27.761Z,1013.49
2022-12-19T02:33:27.840Z,1013.46
2022-12-19T02:34:27.739Z,1013.45
2022-12-19T02:35:27.728Z,1013.34
2022-12-19T02:36:27.718Z,1013.45
2022-12-19T02:37:27.696Z,1013.42
2022-12-19T02:38:27.704Z,1013.39
2022-12-19T02:39:28.794Z,1013.45
2022-12-19T02:40:27.667Z,1013.42
2022-12-19T02:41:27.657Z,1013.46
2022-12-19T02:42:27.638Z,1013.39
2022-12-19T02:43:27.627Z,1013.40
2022-12-19T02:44:27.622Z,1013.36
2022-12-19T02:45:28.740Z,1013.22
2022-12-19T02:46:27.639Z,1013.22
2022-12-19T02:47:27.586Z,1013.23
2022-12-19T02:48:27.564Z,1013.27
2022-12-19T02:49:30.602Z,1013.34
2022-12-19T02:50:27.544Z,1013.27
2022-12-19T02:51:27.537Z,1013.14
2022-12-19T02:52:27.528Z,1013.20
2022-12-19T02:53:27.504Z,1013.21
2022-12-19T02:54:27.489Z,1013.20
2022-12-19T02:55:27.496Z,1013.19
2022-12-19T02:56:27.469Z,1013.22
2022-12-19T02:57:28.167Z,1013.13
2022-12-19T02:58:27.447Z,1013.14
2022-12-19T02:59:27.433Z,1013.11
2022-12-19T03:00:27.421Z,1013.09
2022-12-19T03:01:27.461Z,1013.07
2022-12-19T03:02:27.566Z,1013.12
2022-12-19T03:03:27.416Z,1013.02
2022-12-19T03:04:27.382Z,1013.04
2022-12-19T03:05:27.449Z,1012.98
2022-12-19T03:06:27.347Z,1012.99
2022-12-19T03:07:27.337Z,1012.88
2022-12-19T03:08:27.323Z,1012.89
2022-12-19T03:09:27.313Z,1013.02
2022-12-19T03:10:27.297Z,1012.94
2022-12-19T03:11:27.279Z,1013.01
2022-12-19T03:12:27.276Z,1012.91
2022-12-19T03:13:27.263Z,1012.95
2022-12-19T03:14:27.250Z,1012.88
2022-12-19T03:15:27.234Z,1012.86
2022-12-19T03:16:27.238Z,1012.96
2022-12-19T03:17:27.210Z,1012.91
2022-12-19T03:18:27.203Z,1012.91
2022-12-19T03:19:27.183Z,1012.85
2022-12-19T03:20:27.172Z,1012.80
2022-12-19T03:21:27.242Z,1012.79
2022-12-19T03:22:27.147Z,1012.81
2022-12-19T03:23:27.133Z,1012.81
2022-12-19T03:24:27.124Z,1012.83
2022-12-19T03:25:27.119Z,1012.79
2022-12-19T03:26:27.098Z,1012.68
2022-12-19T03:27:27.092Z,1012.73
2022-12-19T03:28:27.083Z,1012.76
2022-12-19T03:29:27.068Z,1012.79
2022-12-19T03:30:27.115Z,1012.71
2022-12-19T03:31:27.037Z,1012.71
2022-12-19T03:32:27.030Z,1012.78
2022-12-19T03:33:27.013Z,1012.65
2022-12-19T03:34:27.003Z,1012.65
2022-12-19T03:35:26.989Z,1012.67
2022-12-19T03:36:26.975Z,1012.67
2022-12-19T03:37:27.044Z,1012.75
2022-12-19T03:38:26.957Z,1012.71
2022-12-19T03:39:26.966Z,1012.61
2022-12-19T03:40:26.935Z,1012.68
2022-12-19T03:41:26.917Z,1012.68
2022-12-19T03:42:26.897Z,1012.71
2022-12-19T03:43:26.888Z,1012.61
2022-12-19T03:44:26.878Z,1012.66
2022-12-19T03:45:26.870Z,1012.57
2022-12-19T03:46:26.882Z,1012.57
2022-12-19T03:47:26.848Z,1012.65
2022-12-19T03:48:26.833Z,1012.55
2022-12-19T03:49:26.817Z,1012.63
2022-12-19T03:50:26.806Z,1012.60
2022-12-19T03:51:26.795Z,1012.56
2022-12-19T03:52:26.782Z,1012.49
2022-12-19T03:53:26.852Z,1012.54
2022-12-19T03:54:26.759Z,1012.47
2022-12-19T03:55:26.763Z,1012.50
2022-12-19T03:56:26.739Z,1012.51
2022-12-19T03:57:26.718Z,1012.47
2022-12-19T03:58:26.714Z,1012.57
2022-12-19T03:59:26.696Z,1012.58
2022-12-19T04:00:26.688Z,1012.57
2022-12-19T04:01:26.707Z,1012.52
2022-12-19T04:02:26.739Z,1012.52
2022-12-19T04:03:26.671Z,1012.44
2022-12-19T04:04:26.640Z,1012.45
2022-12-19T04:05:26.638Z,1012.53
2022-12-19T04:06:26.614Z,1012.51
2022-12-19T04:07:26.602Z,1012.44
2022-12-19T04:08:26.590Z,1012.47
2022-12-19T04:09:26.655Z,1012.49
2022-12-19T04:10:26.565Z,1012.45
2022-12-19T04:11:26.551Z,1012.44
2022-12-19T04:12:26.539Z,1012.51
2022-12-19T04:13:26.532Z,1012.43
2022-12-19T04:14:26.523Z,1012.43
2022-12-19T04:15:26.571Z,1012.41
2022-12-19T04:16:26.492Z,1012.41
2022-12-19T04:17:26.487Z,1012.34
2022-12-19T04:18:26.475Z,1012.36
2022-12-19T04:19:26.462Z,1012.34
2022-12-19T04:20:26.453Z,1012.35
2022-12-19T04:21:26.434Z,1012.35
2022-12-19T04:22:26.422Z,1012.33
2022-12-19T04:23:26.411Z,1012.31
2022-12-19T04:24:26.399Z,1012.36
2022-12-19T04:25:29.553Z,1012.21
2022-12-19T04:26:26.374Z,1012.21
2022-12-19T04:27:26.362Z,1012.20
2022-12-19T04:28:26.353Z,1012.28
2022-12-19T04:29:26.344Z,1012.20
2022-12-19T04:30:26.327Z,1012.30
2022-12-19T04:31:26.350Z,1012.25
2022-12-19T04:32:26.304Z,1012.28
2022-12-19T04:33:26.289Z,1012.24
2022-12-19T04:34:26.282Z,1012.19
2022-12-19T04:35:26.270Z,1012.20
2022-12-19T04:36:26.255Z,1012.12
2022-12-19T04:37:26.245Z,1012.13
2022-12-19T04:38:26.233Z,1012.09
2022-12-19T04:39:26.216Z,1012.11
2022-12-19T04:40:26.206Z,1012.10
2022-12-19T04:41:26.282Z,1012.27
2022-12-19T04:42:26.185Z,1012.09
2022-12-19T04:43:26.173Z,1012.07
2022-12-19T04:44:26.158Z,1012.24
2022-12-19T04:45:26.152Z,1012.09
2022-12-19T04:46:26.182Z,1012.23
2022-12-19T04:47:26.121Z,1012.13
2022-12-19T04:48:26.109Z,1012.19
2022-12-19T04:49:26.096Z,1012.12
2022-12-19T04:50:26.082Z,1012.15
2022-12-19T04:51:26.192Z,1012.19
2022-12-19T04:52:26.059Z,1012.21
2022-12-19T04:53:26.047Z,1012.32
2022-12-19T04:54:26.043Z,1012.20
2022-12-19T04:55:26.031Z,1012.24
2022-12-19T04:56:26.087Z,1012.23
2022-12-19T04:57:26.080Z,1012.30
2022-12-19T04:58:25.986Z,1012.31
2022-12-19T04:59:25.972Z,1012.39
2022-12-19T05:00:25.971Z,1012.34
2022-12-19T05:01:26.057Z,1012.34
2022-12-19T05:02:26.136Z,1012.38
2022-12-19T05:03:25.960Z,1012.29
2022-12-19T05:04:25.920Z,1012.43
2022-12-19T05:05:25.904Z,1012.51
2022-12-19T05:06:25.990Z,1012.49
2022-12-19T05:07:25.878Z,1012.49
2022-12-19T05:08:25.867Z,1012.46
2022-12-19T05:09:25.855Z,1012.46
2022-12-19T05:10:25.840Z,1012.46
2022-12-19T05:11:25.829Z,1012.42
2022-12-19T05:12:25.820Z,1012.38
2022-12-19T05:13:25.916Z,1012.37
2022-12-19T05:14:25.798Z,1012.33
2022-12-19T05:15:25.784Z,1012.31
2022-12-19T05:16:25.812Z,1012.22
2022-12-19T05:17:25.757Z,1012.24
2022-12-19T05:18:25.754Z,1012.25
2022-12-19T05:19:25.741Z,1012.23
2022-12-19T05:20:25.719Z,1012.21
2022-12-19T05:21:25.797Z,1012.26
2022-12-19T05:22:25.699Z,1012.23
2022-12-19T05:23:25.683Z,1012.06
2022-12-19T05:24:25.689Z,1012.09
2022-12-19T05:25:25.664Z,1012.10
2022-12-19T05:26:25.651Z,1012.12
2022-12-19T05:27:25.637Z,1012.05
2022-12-19T05:28:25.626Z,1012.18
2022-12-19T05:29:25.702Z,1012.11
2022-12-19T05:30:25.603Z,1012.15
2022-12-19T05:31:25.628Z,1012.19
2022-12-19T05:32:25.585Z,1012.11
2022-12-19T05:33:25.573Z,1012.21
2022-12-19T05:34:25.561Z,1012.18
2022-12-19T05:35:25.541Z,1012.19
2022-12-19T05:36:32.159Z,1012.17
2022-12-19T05:37:25.522Z,1012.17
2022-12-19T05:38:25.520Z,1012.14
2022-12-19T05:39:25.526Z,1012.11
2022-12-19T05:40:25.515Z,1012.08
2022-12-19T05:41:25.490Z,1012.13
2022-12-19T05:42:25.465Z,1012.23
2022-12-19T05:43:25.441Z,1012.17
2022-12-19T05:44:25.447Z,1012.14
2022-12-19T05:45:25.510Z,1012.10
2022-12-19T05:46:25.452Z,1012.13
2022-12-19T05:47:25.405Z,1012.08
2022-12-19T05:48:25.395Z,1012.01
2022-12-19T05:49:25.386Z,1011.99
2022-12-19T05:50:25.370Z,1011.94
2022-12-19T05:51:25.364Z,1011.92
2022-12-19T05:52:25.346Z,1011.86
2022-12-19T05:53:26.208Z,1011.97
2022-12-19T05:54:25.327Z,1011.93
2022-12-19T05:55:25.307Z,1012.00
2022-12-19T05:56:25.299Z,1012.01
2022-12-19T05:57:25.291Z,1011.98
2022-12-19T05:58:25.276Z,1012.00
2022-12-19T05:59:25.269Z,1012.04
2022-12-19T06:00:25.255Z,1012.02
2022-12-19T06:01:25.416Z,1012.01
2022-12-19T06:02:25.363Z,1012.06
2022-12-19T06:03:25.289Z,1012.07
2022-12-19T06:04:25.214Z,1012.12
2022-12-19T06:05:25.196Z,1012.12
2022-12-19T06:06:25.191Z,1012.16
2022-12-19T06:07:25.172Z,1012.19
2022-12-19T06:08:25.174Z,1012.27
2022-12-19T06:09:25.179Z,1012.39
2022-12-19T06:10:25.139Z,1012.36
2022-12-19T06:11:25.128Z,1012.47
2022-12-19T06:12:25.115Z,1012.51
2022-12-19T06:13:25.307Z,1012.60
2022-12-19T06:14:25.108Z,1012.54
2022-12-19T06:15:25.086Z,1012.58
2022-12-19T06:16:25.144Z,1012.48
2022-12-19T06:17:25.141Z,1012.46
2022-12-19T06:18:25.047Z,1012.49
2022-12-19T06:19:25.029Z,1012.41
2022-12-19T06:20:25.021Z,1012.56
2022-12-19T06:21:25.019Z,1012.42
2022-12-19T06:22:25.006Z,1012.41
2022-12-19T06:23:24.997Z,1012.45
2022-12-19T06:24:24.984Z,1012.37
2022-12-19T06:25:24.974Z,1012.39
2022-12-19T06:26:24.959Z,1012.38
2022-12-19T06:27:24.951Z,1012.37
2022-12-19T06:28:24.934Z,1012.36
2022-12-19T06:29:24.926Z,1012.42
2022-12-19T06:30:24.910Z,1012.43
2022-12-19T06:31:24.958Z,1012.39
2022-12-19T06:32:24.891Z,1012.41
2022-12-19T06:33:24.986Z,1012.38
2022-12-19T06:34:55.184Z,1012.47
2022-12-19T06:35:24.855Z,1012.36
2022-12-19T06:36:24.844Z,1012.41
2022-12-19T06:37:24.833Z,1012.37
2022-12-19T06:38:24.819Z,1012.42
2022-12-19T06:39:24.828Z,1012.41
2022-12-19T06:40:24.799Z,1012.37
2022-12-19T06:41:24.796Z,1012.41
2022-12-19T06:42:24.777Z,1012.39
2022-12-19T06:43:24.771Z,1012.40
2022-12-19T06:44:24.760Z,1012.44
2022-12-19T06:45:24.819Z,1012.50
2022-12-19T06:46:24.736Z,1012.41
2022-12-19T06:47:24.763Z,1012.46
2022-12-19T06:48:24.711Z,1012.52
2022-12-19T06:49:24.796Z,1012.47
2022-12-19T06:50:24.689Z,1012.49
2022-12-19T06:51:24.672Z,1012.46
2022-12-19T06:52:24.665Z,1012.51
2022-12-19T06:53:24.654Z,1012.54
2022-12-19T06:54:24.648Z,1012.54
2022-12-19T06:55:24.630Z,1012.53
2022-12-19T06:56:24.617Z,1012.47
2022-12-19T06:57:24.608Z,1012.43
2022-12-19T06:58:24.652Z,1012.49
2022-12-19T06:59:24.585Z,1012.38
2022-12-19T07:00:24.577Z,1012.47
2022-12-19T07:01:24.683Z,1012.53
2022-12-19T07:02:24.652Z,1012.50
2022-12-19T07:03:24.546Z,1012.43
2022-12-19T07:04:24.534Z,1012.43
2022-12-19T07:05:24.603Z,1012.42
2022-12-19T07:06:24.509Z,1012.45
2022-12-19T07:07:24.530Z,1012.50
2022-12-19T07:08:24.492Z,1012.52
2022-12-19T07:09:24.472Z,1012.44
2022-12-19T07:10:24.547Z,1012.45
2022-12-19T07:11:24.452Z,1012.46
2022-12-19T07:12:24.462Z,1012.38
2022-12-19T07:13:24.431Z,1012.40
2022-12-19T07:14:24.420Z,1012.49
2022-12-19T07:15:24.418Z,1012.40
2022-12-19T07:16:24.427Z,1012.41
2022-12-19T07:17:24.384Z,1012.46
2022-12-19T07:18:24.373Z,1012.41
2022-12-19T07:19:24.358Z,1012.50
2022-12-19T07:20:24.346Z,1012.52
2022-12-19T07:21:24.423Z,1012.46
2022-12-19T07:22:24.323Z,1012.45
2022-12-19T07:23:24.308Z,1012.46
2022-12-19T07:24:24.305Z,1012.39
2022-12-19T07:25:24.291Z,1012.41
2022-12-19T07:26:24.288Z,1012.44
2022-12-19T07:27:25.653Z,1012.42
2022-12-19T07:28:24.258Z,1012.36
2022-12-19T07:29:24.260Z,1012.51
2022-12-19T07:30:24.240Z,1012.35
2022-12-19T07:31:24.301Z,1012.44
2022-12-19T07:32:24.224Z,1012.49
2022-12-19T07:33:24.204Z,1012.49
2022-12-19T07:34:24.193Z,1012.57
2022-12-19T07:35:24.191Z,1012.59
2022-12-19T07:36:24.173Z,1012.60
2022-12-19T07:37:24.254Z,1012.58
2022-12-19T07:38:24.148Z,1012.62
2022-12-19T07:39:24.141Z,1012.62
2022-12-19T07:40:24.145Z,1012.75
2022-12-19T07:41:24.119Z,1012.71
2022-12-19T07:42:27.059Z,1012.74
2022-12-19T07:43:24.098Z,1012.74
2022-12-19T07:44:24.085Z,1012.86
2022-12-19T07:45:24.097Z,1012.84
2022-12-19T07:46:24.071Z,1012.86
2022-12-19T07:47:24.047Z,1012.98
2022-12-19T07:48:24.045Z,1012.96
2022-12-19T07:49:24.030Z,1012.95
2022-12-19T07:50:24.018Z,1012.90
2022-12-19T07:51:24.006Z,1012.91
2022-12-19T07:52:24.001Z,1012.90
2022-12-19T07:53:24.074Z,1012.88
2022-12-19T07:54:23.976Z,1012.81
2022-12-19T07:55:23.961Z,1012.83
2022-12-19T07:56:23.954Z,1012.86
2022-12-19T07:57:23.945Z,1012.86
2022-12-19T07:58:23.932Z,1012.83
2022-12-19T07:59:29.651Z,1012.80
2022-12-19T08:00:23.905Z,1012.83
2022-12-19T08:01:23.974Z,1012.81
2022-12-19T08:02:23.975Z,1012.81
2022-12-19T08:03:23.875Z,1012.85
2022-12-19T08:04:23.861Z,1012.86
2022-12-19T08:05:23.854Z,1012.86
2022-12-19T08:06:23.845Z,1012.84
2022-12-19T08:07:23.830Z,1012.76
2022-12-19T08:08:23.824Z,1012.79
2022-12-19T08:09:23.900Z,1012.78
2022-12-19T08:10:23.800Z,1012.78
2022-12-19T08:11:23.786Z,1012.83
2022-12-19T08:12:23.779Z,1012.71
2022-12-19T08:13:23.775Z,1012.71
2022-12-19T08:14:23.754Z,1012.76
2022-12-19T08:15:23.743Z,1012.67
2022-12-19T08:16:23.762Z,1012.67
2022-12-19T08:17:23.778Z,1012.71
2022-12-19T08:18:23.760Z,1012.67
2022-12-19T08:19:27.461Z,1012.70
2022-12-19T08:20:23.688Z,1012.68
2022-12-19T08:21:23.681Z,1012.73
2022-12-19T08:22:23.666Z,1012.79
2022-12-19T08:23:23.657Z,1012.74
2022-12-19T08:24:23.659Z,1012.75
2022-12-19T08:25:23.721Z,1012.70
2022-12-19T08:26:23.626Z,1012.65
2022-12-19T08:27:23.616Z,1012.75
2022-12-19T08:28:23.606Z,1012.71
2022-12-19T08:29:23.588Z,1012.72
2022-12-19T08:30:23.582Z,1012.69
2022-12-19T08:31:23.611Z,1012.62
2022-12-19T08:32:23.563Z,1012.67
2022-12-19T08:33:23.558Z,1012.62
2022-12-19T08:34:23.546Z,1012.67
2022-12-19T08:35:23.526Z,1012.72
2022-12-19T08:36:23.517Z,1012.61
2022-12-19T08:37:23.507Z,1012.58
2022-12-19T08:38:23.499Z,1012.53
2022-12-19T08:39:23.491Z,1012.54
2022-12-19T08:40:23.479Z,1012.52
2022-12-19T08:41:23.597Z,1012.53
2022-12-19T08:42:23.454Z,1012.54
2022-12-19T08:43:23.454Z,1012.53
2022-12-19T08:44:23.445Z,1012.52
2022-12-19T08:45:23.426Z,1012.50
2022-12-19T08:46:23.453Z,1012.45
2022-12-19T08:47:23.420Z,1012.48
2022-12-19T08:48:23.385Z,1012.49
2022-12-19T08:49:23.380Z,1012.47
2022-12-19T08:50:23.399Z,1012.48
2022-12-19T08:51:23.363Z,1012.44
2022-12-19T08:52:23.349Z,1012.45
2022-12-19T08:53:26.483Z,1012.48
2022-12-19T08:54:23.317Z,1012.49
2022-12-19T08:55:23.310Z,1012.37
2022-12-19T08:56:23.298Z,1012.39
2022-12-19T08:57:23.376Z,1012.39
2022-12-19T08:58:23.280Z,1012.50
2022-12-19T08:59:30.990Z,1012.52
2022-12-19T09:00:23.258Z,1012.51
2022-12-19T09:01:23.322Z,1012.47
2022-12-19T09:02:23.403Z,1012.53
2022-12-19T09:03:24.047Z,1012.53
2022-12-19T09:05:26.028Z,1012.56
2022-12-19T09:06:01.831Z,1012.59
2022-12-19T09:06:23.219Z,1012.64
2022-12-19T09:07:23.217Z,1012.64
2022-12-19T09:08:23.191Z,1012.58
2022-12-19T09:09:23.166Z,1012.59
2022-12-19T09:10:23.161Z,1012.67
2022-12-19T09:11:23.146Z,1012.67
2022-12-19T09:12:23.135Z,1012.70
2022-12-19T09:13:23.202Z,1012.69
2022-12-19T09:14:23.124Z,1012.78
2022-12-19T09:15:23.100Z,1012.72
2022-12-19T09:16:23.154Z,1012.72
2022-12-19T09:17:23.086Z,1012.67
2022-12-19T09:18:23.778Z,1012.66
2022-12-19T09:19:23.058Z,1012.63
2022-12-19T09:20:23.777Z,1012.60
2022-12-19T09:21:23.036Z,1012.58
2022-12-19T09:22:27.602Z,1012.62
2022-12-19T09:23:23.022Z,1012.54
2022-12-19T09:24:23.006Z,1012.52
2022-12-19T09:25:23.004Z,1012.49
2022-12-19T09:26:22.990Z,1012.47
2022-12-19T09:27:22.973Z,1012.49
2022-12-19T09:28:27.740Z,1012.40
2022-12-19T09:29:23.036Z,1012.44
2022-12-19T09:30:22.999Z,1012.45
2022-12-19T09:31:22.968Z,1012.49
2022-12-19T09:32:22.930Z,1012.52
2022-12-19T09:33:22.915Z,1012.49
2022-12-19T09:34:22.899Z,1012.52
2022-12-19T09:35:27.035Z,1012.48
2022-12-19T09:36:22.895Z,1012.51
2022-12-19T09:37:22.872Z,1012.53
2022-12-19T09:38:22.861Z,1012.49
2022-12-19T09:39:22.851Z,1012.48
2022-12-19T09:40:22.901Z,1012.49
2022-12-19T09:41:22.827Z,1012.41
2022-12-19T09:42:22.817Z,1012.45
2022-12-19T09:43:22.864Z,1012.34
2022-12-19T09:44:22.798Z,1012.38
2022-12-19T09:45:31.991Z,1012.31
2022-12-19T09:46:22.797Z,1012.31
2022-12-19T09:47:22.767Z,1012.32
2022-12-19T09:48:24.880Z,1012.38
2022-12-19T09:49:22.753Z,1012.42
2022-12-19T09:50:22.739Z,1012.35
2022-12-19T09:51:22.723Z,1012.35
2022-12-19T09:52:22.716Z,1012.32
2022-12-19T09:53:22.774Z,1012.33
2022-12-19T09:54:22.697Z,1012.37
2022-12-19T09:55:22.683Z,1012.20
2022-12-19T09:56:22.676Z,1012.21
2022-12-19T09:57:22.661Z,1012.13
2022-12-19T09:58:22.660Z,1012.10
2022-12-19T09:59:23.285Z,1012.09
2022-12-19T10:00:22.650Z,1012.14
2022-12-19T10:01:22.830Z,1012.21
2022-12-19T10:02:22.751Z,1012.21
2022-12-19T10:03:22.759Z,1012.15
2022-12-19T10:04:22.615Z,1012.07
2022-12-19T10:05:44.778Z,1012.12
2022-12-19T10:07:12.617Z,1012.08
2022-12-19T10:07:51.341Z,1012.04
2022-12-19T10:08:22.549Z,1012.08
2022-12-19T10:11:26.539Z,1012.13
2022-12-19T10:12:34.643Z,1012.17
2022-12-19T10:12:39.024Z,1012.12
2022-12-19T10:12:43.863Z,1012.13
2022-12-19T10:13:22.567Z,1012.19
2022-12-19T10:14:22.494Z,1012.12
2022-12-19T10:15:22.477Z,1012.19
2022-12-19T10:16:22.501Z,1012.12
2022-12-19T10:17:24.519Z,1012.18
2022-12-19T10:18:22.450Z,1012.16
2022-12-19T10:19:22.432Z,1012.19
2022-12-19T10:20:22.424Z,1012.15
2022-12-19T10:21:36.991Z,1012.06
2022-12-19T10:22:22.405Z,1012.07
2022-12-19T10:23:22.448Z,1012.10
2022-12-19T10:24:22.399Z,1012.15
2022-12-19T10:25:22.399Z,1012.20
2022-12-19T10:26:22.375Z,1012.23
2022-12-19T10:27:22.358Z,1012.17
2022-12-19T10:28:22.345Z,1012.22
2022-12-19T10:29:22.340Z,1012.12
2022-12-19T10:30:22.324Z,1012.08
2022-12-19T10:31:22.940Z,1012.02
2022-12-19T10:32:22.303Z,1012.06
2022-12-19T10:33:22.367Z,1012.03
2022-12-19T10:34:22.313Z,1012.02
2022-12-19T10:35:22.273Z,1012.04
2022-12-19T10:36:36.255Z,1011.92
2022-12-19T10:37:28.993Z,1011.96
2022-12-19T10:38:22.276Z,1012.03
2022-12-19T10:39:22.281Z,1011.87
2022-12-19T10:40:28.280Z,1011.91
2022-12-19T10:41:22.209Z,1011.93
2022-12-19T10:42:22.199Z,1011.96
2022-12-19T10:43:30.675Z,1011.92
2022-12-19T10:44:22.179Z,1011.90
2022-12-19T10:45:22.175Z,1011.87
2022-12-19T10:46:22.234Z,1011.88
2022-12-19T10:47:22.151Z,1011.89
2022-12-19T10:48:24.286Z,1011.81
2022-12-19T10:49:22.305Z,1011.86
2022-12-19T10:50:22.133Z,1011.88
2022-12-19T10:51:22.146Z,1011.92
2022-12-19T10:52:22.100Z,1011.95
2022-12-19T10:53:22.089Z,1011.98
2022-12-19T10:54:22.082Z,1011.93
2022-12-19T10:55:22.075Z,1011.84
2022-12-19T10:56:22.073Z,1011.86
2022-12-19T10:57:22.093Z,1011.92
2022-12-19T10:58:22.050Z,1011.93
2022-12-19T10:59:22.048Z,1011.98
2022-12-19T11:00:22.035Z,1012.01
2022-12-19T11:01:22.166Z,1012.00
2022-12-19T11:02:22.070Z,1011.96
2022-12-19T11:03:22.132Z,1011.96
2022-12-19T11:04:22.038Z,1011.89
2022-12-19T11:05:22.163Z,1011.91
2022-12-19T11:06:22.025Z,1011.89
2022-12-19T11:07:21.992Z,1012.00
2022-12-19T11:08:21.966Z,1012.01
2022-12-19T11:09:21.935Z,1011.94
2022-12-19T11:10:56.926Z,1011.95
2022-12-19T11:11:57.679Z,1011.90
2022-12-19T11:16:09.556Z,1011.90
2022-12-19T11:18:10.815Z,1011.88
2022-12-19T11:20:06.090Z,1011.84
2022-12-19T11:20:30.258Z,1011.83
2022-12-19T11:20:48.577Z,1011.85
2022-12-19T11:22:49.126Z,1011.83
2022-12-19T11:27:11.684Z,1011.81
2022-12-19T11:29:19.747Z,1011.76
2022-12-19T11:29:31.324Z,1011.78
2022-12-19T11:29:31.408Z,1011.79
2022-12-19T11:29:34.684Z,1011.79
2022-12-19T11:29:36.398Z,1011.76
2022-12-19T11:29:38.939Z,1011.83
2022-12-19T11:29:54.651Z,1011.86
2022-12-19T11:30:08.864Z,1011.85
2022-12-19T11:30:38.648Z,1011.83
2022-12-19T11:30:44.127Z,1011.85
2022-12-19T11:32:01.806Z,1011.84
2022-12-19T11:32:20.600Z,1011.86
2022-12-19T11:32:39.470Z,1011.85
2022-12-19T11:33:21.742Z,1011.82
2022-12-19T11:34:21.691Z,1011.79
2022-12-19T11:35:24.224Z,1011.74
2022-12-19T11:36:21.666Z,1011.73
2022-12-19T11:37:21.735Z,1011.71
2022-12-19T11:38:21.638Z,1011.68
2022-12-19T11:39:21.645Z,1011.70
2022-12-19T11:40:21.618Z,1011.74
2022-12-19T11:41:21.611Z,1011.73
2022-12-19T11:42:21.602Z,1011.82
2022-12-19T11:44:21.579Z,1011.78
2022-12-19T11:45:21.565Z,1011.78
2022-12-19T11:46:22.404Z,1011.76
2022-12-19T11:47:21.553Z,1011.80
2022-12-19T11:48:21.548Z,1011.82
2022-12-19T11:49:21.525Z,1011.83
2022-12-19T11:50:21.532Z,1011.89
2022-12-19T11:51:21.510Z,1011.87
2022-12-19T11:53:02.370Z,1011.91
2022-12-19T11:53:21.643Z,1011.86
2022-12-19T11:54:21.492Z,1011.82
2022-12-19T11:55:21.467Z,1011.80
2022-12-19T11:56:21.478Z,1011.78
2022-12-19T11:57:21.451Z,1011.79
2022-12-19T11:58:21.442Z,1011.87
2022-12-19T11:59:21.433Z,1011.93
2022-12-19T12:00:21.425Z,1011.95
2022-12-19T12:01:21.498Z,1011.97
2022-12-19T12:02:21.405Z,1011.95
2022-12-19T12:03:21.494Z,1011.87
2022-12-19T12:04:21.439Z,1011.90
2022-12-19T12:05:21.373Z,1011.89
2022-12-19T12:06:24.227Z,1011.92
2022-12-19T12:07:40.486Z,1011.89